Time;durP1;ratioP1;P1;durP2;ratioP2;P2;SDS_P1;SDS_P2;PMS_P1;PMS_P2;Temp;Humidity;BMP_temperature;BMP_pressure;BME280_temperature;BME280_humidity;BME280_pressure;Samples;Min_cycle;Max_cycle;Signal;HPM_P1;HPM_P2
2022/02/07 00:02:04;;;;;;;44.92;33.72;;;;;;;;;;4779822;29;86842;-77
2022/02/07 00:04:36;;;;;;;45.20;34.25;;;;;;;;;;4793266;29;89067;-77
2022/02/07 00:07:05;;;;;;;41.80;33.47;;;;;;;;;;4793115;29;89178;-77
2022/02/07 00:09:34;;;;;;;38.50;32.80;;;;;;;;;;4791555;29;87023;-77
2022/02/07 00:12:01;;;;;;;44.30;33.30;;;;;;;;;;4793280;29;86859;-77
2022/02/07 00:14:27;;;;;;;43.83;37.10;;;;;;;;;;4776429;29;88338;-76
2022/02/07 00:16:54;;;;;;;40.38;34.58;;;;;;;;;;4793370;29;89556;-77
2022/02/07 00:19:25;;;;;;;44.10;35.05;;;;;;;;;;4791715;29;87435;-77
2022/02/07 00:21:57;;;;;;;39.85;32.92;;;;;;;;;;4792635;29;86979;-77
2022/02/07 00:24:24;;;;;;;40.67;31.80;;;;;;;;;;4791977;29;90629;-77
2022/02/07 00:26:51;;;;;;;41.85;33.25;;;;;;;;;;4792945;29;89312;-76
2022/02/07 00:29:18;;;;;;;44.40;34.05;;;;;;;;;;4776850;29;87369;-76
2022/02/07 00:31:45;;;;;;;45.70;36.42;;;;;;;;;;4776923;29;87260;-77
2022/02/07 00:34:12;;;;;;;48.58;37.22;;;;;;;;;;4776392;29;89827;-77
2022/02/07 00:36:39;;;;;;;47.55;38.38;;;;;;;;;;4791084;29;89090;-76
2022/02/07 00:39:12;;;;;;;47.95;34.88;;;;;;;;;;4787220;29;87022;-76
2022/02/07 00:41:48;;;;;;;63.73;38.77;;;;;;;;;;4792945;29;86208;-79
2022/02/07 00:44:18;;;;;;;46.38;35.25;;;;;;;;;;4792688;29;90083;-79
2022/02/07 00:47:09;;;;;;;41.33;34.15;;;;;;;;;;4776934;29;87549;-76
2022/02/07 00:49:33;;;;;;;42.28;32.65;;;;;;;;;;4792168;29;87810;-76
2022/02/07 00:52:00;;;;;;;47.95;34.00;;;;;;;;;;4791172;29;87014;-76
2022/02/07 00:54:28;;;;;;;45.38;31.52;;;;;;;;;;4806681;29;88365;-77
2022/02/07 00:56:55;;;;;;;40.40;32.85;;;;;;;;;;4776434;29;87863;-76
2022/02/07 00:59:23;;;;;;;38.15;32.15;;;;;;;;;;4806758;29;86823;-79
2022/02/07 01:01:51;;;;;;;38.53;30.33;;;;;;;;;;4825152;29;87478;-76
2022/02/07 01:04:19;;;;;;;36.03;29.38;;;;;;;;;;4808868;29;88730;-79
2022/02/07 01:06:58;;;;;;;36.70;31.92;;;;;;;;;;4809944;29;91076;-76
2022/02/07 01:09:37;;;;;;;39.05;30.38;;;;;;;;;;4824254;29;87020;-76
2022/02/07 01:12:26;;;;;;;36.67;30.30;;;;;;;;;;4825048;29;86999;-79
2022/02/07 01:21:59;;;;;;;45.17;35.00;;;;;;;;;;4807763;29;86865;-78
2022/02/07 01:56:56;;;;;;;44.85;33.42;;;;;;;;;;4824333;29;88649;-77
2022/02/07 01:59:24;;;;;;;47.30;35.38;;;;;;;;;;4823114;29;91848;-76
2022/02/07 02:01:52;;;;;;;41.30;33.03;;;;;;;;;;4824026;29;91250;-77
2022/02/07 02:04:19;;;;;;;51.10;38.33;;;;;;;;;;4823923;29;86897;-77
2022/02/07 02:06:48;;;;;;;41.92;34.30;;;;;;;;;;4808856;29;86823;-76
2022/02/07 02:09:28;;;;;;;44.83;34.72;;;;;;;;;;4823143;29;92542;-77
2022/02/07 02:11:57;;;;;;;50.00;36.50;;;;;;;;;;4810167;29;89047;-76
2022/02/07 02:17:20;;;;;;;48.08;37.25;;;;;;;;;;4824329;29;87018;-77
2022/02/07 02:22:51;;;;;;;45.22;34.47;;;;;;;;;;4793187;29;90890;-76
2022/02/07 02:34:29;;;;;;;43.45;32.40;;;;;;;;;;4798820;29;90898;-77
2022/02/07 02:37:29;;;;;;;49.38;37.47;;;;;;;;;;4807155;29;87989;-76
2022/02/07 02:48:27;;;;;;;52.30;38.30;;;;;;;;;;4831155;29;87613;-78
2022/02/07 02:50:56;;;;;;;48.40;35.15;;;;;;;;;;4825493;29;87179;-80
2022/02/07 02:53:23;;;;;;;55.08;39.47;;;;;;;;;;4809986;29;91231;-77
2022/02/07 02:55:54;;;;;;;50.40;37.47;;;;;;;;;;4811714;29;91667;-76
2022/02/07 02:58:33;;;;;;;55.65;38.53;;;;;;;;;;4841361;29;87068;-78
2022/02/07 03:01:02;;;;;;;53.55;38.42;;;;;;;;;;4825667;29;86907;-77
2022/02/07 03:03:50;;;;;;;45.50;34.72;;;;;;;;;;4841325;29;91717;-76
2022/02/07 03:06:17;;;;;;;58.30;38.13;;;;;;;;;;4830444;29;87982;-77
2022/02/07 03:08:44;;;;;;;49.15;36.45;;;;;;;;;;4844979;29;86953;-76
2022/02/07 03:11:22;;;;;;;49.90;34.92;;;;;;;;;;4813872;29;87034;-76
2022/02/07 03:13:54;;;;;;;52.83;37.65;;;;;;;;;;4814080;29;91923;-76
2022/02/07 03:16:37;;;;;;;57.47;38.50;;;;;;;;;;4827377;29;91422;-76
2022/02/07 03:19:13;;;;;;;48.08;35.42;;;;;;;;;;4845101;29;86904;-77
2022/02/07 03:21:42;;;;;;;46.50;33.88;;;;;;;;;;4822839;29;87343;-76
2022/02/07 03:24:10;;;;;;;40.05;33.70;;;;;;;;;;4810802;29;90764;-76
2022/02/07 03:26:44;;;;;;;;;;;;;;;;;;4825263;29;91259;-77
2022/02/07 03:29:20;;;;;;;51.42;34.08;;;;;;;;;;4813272;29;87816;-77
2022/02/07 03:31:48;;;;;;;51.35;32.92;;;;;;;;;;4810671;29;87129;-77
2022/02/07 03:34:22;;;;;;;48.33;35.43;;;;;;;;;;4825415;29;87805;-77
2022/02/07 03:36:51;;;;;;;46.88;32.40;;;;;;;;;;4810035;29;90752;-77
2022/02/07 03:39:21;;;;;;;40.90;32.00;;;;;;;;;;4825344;29;87022;-77
2022/02/07 03:41:49;;;;;;;49.72;32.83;;;;;;;;;;4810886;29;86849;-78
2022/02/07 03:44:16;;;;;;;52.78;34.50;;;;;;;;;;4825602;29;90946;-79
2022/02/07 03:46:44;;;;;;;51.53;34.60;;;;;;;;;;4826151;29;91412;-76
2022/02/07 03:49:12;;;;;;;50.05;35.28;;;;;;;;;;4825648;29;87426;-77
2022/02/07 03:51:46;;;;;;;51.60;34.67;;;;;;;;;;4826360;29;87000;-76
2022/02/07 03:54:16;;;;;;;48.80;34.38;;;;;;;;;;4808303;29;88657;-76
2022/02/07 03:56:46;;;;;;;51.78;34.65;;;;;;;;;;4795084;29;92456;-76
2022/02/07 03:59:15;;;;;;;56.90;34.60;;;;;;;;;;4825184;29;86924;-76
2022/02/07 04:01:43;;;;;;;68.55;36.67;;;;;;;;;;4825766;29;87155;-77
2022/02/07 04:04:11;;;;;;;119.10;37.67;;;;;;;;;;4809658;29;91231;-76
2022/02/07 04:06:41;;;;;;;66.78;34.95;;;;;;;;;;4825007;29;90625;-84
2022/02/07 04:09:23;;;;;;;112.32;34.00;;;;;;;;;;4823480;29;86970;-83
2022/02/07 04:11:57;;;;;;;99.68;32.72;;;;;;;;;;4825494;29;86484;-77
2022/02/07 04:14:26;;;;;;;74.63;34.17;;;;;;;;;;4824389;29;92155;-77
2022/02/07 04:17:01;;;;;;;62.47;36.47;;;;;;;;;;4823633;29;92054;-76
2022/02/07 04:19:34;;;;;;;80.03;34.42;;;;;;;;;;4809396;29;87793;-76
2022/02/07 04:22:06;;;;;;;70.65;36.08;;;;;;;;;;4794924;29;87181;-76
2022/02/07 04:24:54;;;;;;;44.95;33.60;;;;;;;;;;4811184;29;87546;-76
2022/02/07 04:27:31;;;;;;;60.28;34.20;;;;;;;;;;4823720;29;90831;-76
2022/02/07 04:29:58;;;;;;;53.72;32.92;;;;;;;;;;4810011;29;87065;-76
2022/02/07 04:32:30;;;;;;;75.75;29.90;;;;;;;;;;4824447;29;87416;-77
2022/02/07 04:34:58;;;;;;;144.25;34.83;;;;;;;;;;4825399;29;87549;-76
2022/02/07 04:37:26;;;;;;;98.03;30.75;;;;;;;;;;4809421;29;91865;-76
2022/02/07 04:39:54;;;;;;;69.40;29.45;;;;;;;;;;4824659;29;87050;-76
2022/02/07 04:42:29;;;;;;;81.72;28.63;;;;;;;;;;4825276;29;86925;-78
2022/02/07 04:58:44;;;;;;;41.63;26.95;;;;;;;;;;4800347;29;91854;-77
2022/02/07 05:02:03;;;;;;;85.95;25.38;;;;;;;;;;4774474;29;86942;-76
2022/02/07 05:04:18;;;;;;;81.10;28.48;;;;;;;;;;4779804;29;86250;-76
2022/02/07 05:15:06;;;;;;;51.70;23.75;;;;;;;;;;4825138;29;87223;-77
2022/02/07 05:17:37;;;;;;;67.47;27.17;;;;;;;;;;4810624;29;89069;-76
2022/02/07 05:20:33;;;;;;;52.67;27.42;;;;;;;;;;4824616;29;88237;-76
2022/02/07 05:23:18;;;;;;;35.90;24.90;;;;;;;;;;4797289;29;86902;-76
2022/02/07 05:26:17;;;;;;;51.67;24.27;;;;;;;;;;4809717;29;86981;-76
2022/02/07 05:29:07;;;;;;;40.65;26.23;;;;;;;;;;4810953;29;88656;-76
2022/02/07 05:31:56;;;;;;;30.20;24.80;;;;;;;;;;4809093;29;91862;-75
2022/02/07 05:34:34;;;;;;;31.63;25.30;;;;;;;;;;4809311;29;86862;-76
2022/02/07 05:37:21;;;;;;;28.40;22.65;;;;;;;;;;4809781;29;87156;-76
2022/02/07 05:40:22;;;;;;;28.30;21.15;;;;;;;;;;4805989;29;89344;-76
2022/02/07 05:43:08;;;;;;;43.75;21.08;;;;;;;;;;4808569;29;92712;-76
2022/02/07 05:45:55;;;;;;;63.85;21.60;;;;;;;;;;4812261;29;86929;-76
2022/02/07 05:48:42;;;;;;;65.00;24.38;;;;;;;;;;4814584;29;87015;-76
2022/02/07 05:51:42;;;;;;;56.05;23.80;;;;;;;;;;4809444;29;87988;-76
2022/02/07 05:54:35;;;;;;;39.03;22.83;;;;;;;;;;4801388;29;87049;-77
2022/02/07 05:57:22;;;;;;;40.47;23.58;;;;;;;;;;4789661;29;87042;-76
2022/02/07 06:00:07;;;;;;;90.82;28.60;;;;;;;;;;4822368;29;86279;-77
2022/02/07 06:02:43;;;;;;;67.50;26.98;;;;;;;;;;4823602;29;87206;-77
2022/02/07 06:05:23;;;;;;;55.25;24.98;;;;;;;;;;4819919;29;90351;-78
2022/02/07 06:07:56;;;;;;;92.28;28.75;;;;;;;;;;4822126;29;87796;-78
2022/02/07 06:10:23;;;;;;;54.70;23.58;;;;;;;;;;4807855;29;87053;-77
2022/02/07 06:12:51;;;;;;;49.05;26.17;;;;;;;;;;4824129;29;91966;-77
2022/02/07 06:15:18;;;;;;;56.20;24.90;;;;;;;;;;4823662;29;91479;-79
2022/02/07 06:17:50;;;;;;;72.70;26.73;;;;;;;;;;4823670;29;86854;-82
2022/02/07 06:20:18;;;;;;;63.05;27.98;;;;;;;;;;4823449;29;86950;-79
2022/02/07 06:22:48;;;;;;;74.25;27.00;;;;;;;;;;4808118;29;91975;-78
2022/02/07 06:25:17;;;;;;;59.67;27.10;;;;;;;;;;4808382;29;91504;-78
2022/02/07 06:27:46;;;;;;;58.92;25.60;;;;;;;;;;4807724;29;87522;-77
2022/02/07 06:30:18;;;;;;;70.78;26.35;;;;;;;;;;4822254;29;86926;-78
2022/02/07 06:32:45;;;;;;;54.88;28.13;;;;;;;;;;4822859;29;91881;-77
2022/02/07 06:35:13;;;;;;;53.45;27.00;;;;;;;;;;4808203;29;92040;-77
2022/02/07 06:37:41;;;;;;;55.10;26.67;;;;;;;;;;4808047;29;87047;-79
2022/02/07 06:40:09;;;;;;;37.13;25.65;;;;;;;;;;4825492;29;87100;-78
2022/02/07 06:42:36;;;;;;;72.72;29.35;;;;;;;;;;4826496;29;91199;-77
2022/02/07 06:45:04;;;;;;;64.47;32.60;;;;;;;;;;4826774;29;90992;-77
2022/02/07 06:47:33;;;;;;;40.28;27.60;;;;;;;;;;4811181;29;87142;-78
2022/02/07 06:50:01;;;;;;;85.43;34.58;;;;;;;;;;4811431;29;86105;-77
2022/02/07 06:52:28;;;;;;;72.68;30.23;;;;;;;;;;4826688;29;91579;-77
2022/02/07 06:54:55;;;;;;;85.47;29.70;;;;;;;;;;4826173;29;90901;-78
2022/02/07 06:57:23;;;;;;;59.78;25.42;;;;;;;;;;4810963;29;88191;-77
2022/02/07 06:59:51;;;;;;;79.43;28.40;;;;;;;;;;4822342;29;87074;-78
2022/02/07 07:02:27;;;;;;;52.63;28.17;;;;;;;;;;4806390;29;91573;-78
2022/02/07 07:04:58;;;;;;;55.25;24.95;;;;;;;;;;4807131;29;91396;-78
2022/02/07 07:07:25;;;;;;;51.58;24.80;;;;;;;;;;4808378;29;86936;-78
2022/02/07 07:09:54;;;;;;;30.48;22.85;;;;;;;;;;4808010;29;86944;-78
2022/02/07 07:12:21;;;;;;;34.28;26.63;;;;;;;;;;4806897;29;91641;-77
2022/02/07 07:15:05;;;;;;;38.22;25.92;;;;;;;;;;4806958;29;90660;-78
2022/02/07 07:17:32;;;;;;;35.67;27.23;;;;;;;;;;4807777;29;86928;-78
2022/02/07 07:20:02;;;;;;;37.63;25.15;;;;;;;;;;4808203;29;86940;-78
2022/02/07 07:22:33;;;;;;;37.47;27.38;;;;;;;;;;4806985;29;92334;-78
2022/02/07 07:25:03;;;;;;;38.22;28.20;;;;;;;;;;4807082;29;91849;-78
2022/02/07 07:27:37;;;;;;;40.33;28.58;;;;;;;;;;4807253;29;86949;-78
2022/02/07 07:30:05;;;;;;;45.65;28.58;;;;;;;;;;4807061;29;87006;-77
2022/02/07 07:32:32;;;;;;;44.33;30.67;;;;;;;;;;4807191;29;91510;-77
2022/02/07 07:35:01;;;;;;;47.40;28.88;;;;;;;;;;4807264;29;91217;-78
2022/02/07 07:37:29;;;;;;;46.60;29.23;;;;;;;;;;4807943;29;88058;-78
2022/02/07 07:39:56;;;;;;;43.35;29.98;;;;;;;;;;4807258;29;86149;-78
2022/02/07 07:42:28;;;;;;;42.10;27.73;;;;;;;;;;4807082;29;90502;-79
2022/02/07 07:45:05;;;;;;;46.22;30.80;;;;;;;;;;4806360;29;87888;-77
2022/02/07 07:47:32;;;;;;;46.78;31.42;;;;;;;;;;4793383;29;87736;-77
2022/02/07 07:50:18;;;;;;;43.80;28.23;;;;;;;;;;4804323;29;86945;-78
2022/02/07 08:02:01;;;;;;;51.08;31.98;;;;;;;;;;4820897;29;87041;-79
2022/02/07 08:04:33;;;;;;;67.25;39.88;;;;;;;;;;4823913;29;90863;-80
2022/02/07 08:07:10;;;;;;;66.17;39.60;;;;;;;;;;4809632;29;90957;-78
2022/02/07 08:12:16;;;;;;;56.60;36.47;;;;;;;;;;4825593;29;86922;-79
2022/02/07 08:14:49;;;;;;;57.97;33.83;;;;;;;;;;4823478;29;89411;-79
2022/02/07 08:17:28;;;;;;;58.90;38.30;;;;;;;;;;4823874;29;90543;-80
2022/02/07 08:19:56;;;;;;;61.88;37.45;;;;;;;;;;4825772;29;86835;-79
2022/02/07 08:22:24;;;;;;;67.45;41.17;;;;;;;;;;4825436;29;86889;-80
2022/02/07 08:24:55;;;;;;;57.53;36.67;;;;;;;;;;4825332;29;89590;-81
2022/02/07 08:27:27;;;;;;;69.80;40.85;;;;;;;;;;4824809;29;88181;-79
2022/02/07 08:29:56;;;;;;;69.28;43.03;;;;;;;;;;4825530;29;86993;-80
2022/02/07 08:32:24;;;;;;;72.07;42.85;;;;;;;;;;4825440;29;86284;-79
2022/02/07 08:34:52;;;;;;;81.25;45.80;;;;;;;;;;4825349;29;90127;-78
2022/02/07 08:37:20;;;;;;;69.82;43.70;;;;;;;;;;4810890;29;87974;-79
2022/02/07 08:39:47;;;;;;;76.50;43.65;;;;;;;;;;4810263;29;88142;-79
2022/02/07 08:42:14;;;;;;;69.68;40.65;;;;;;;;;;4825336;29;86896;-79
2022/02/07 08:44:41;;;;;;;69.55;41.10;;;;;;;;;;4824421;29;89080;-79
2022/02/07 08:47:08;;;;;;;66.25;40.40;;;;;;;;;;4810970;29;89370;-79
2022/02/07 08:49:36;;;;;;;66.68;38.25;;;;;;;;;;4824611;29;86830;-79
2022/02/07 08:52:03;;;;;;;63.17;38.45;;;;;;;;;;4825008;29;87106;-79
2022/02/07 08:54:32;;;;;;;62.88;37.35;;;;;;;;;;4824146;29;91157;-79
2022/02/07 08:57:11;;;;;;;69.82;40.08;;;;;;;;;;4811444;29;89208;-79
2022/02/07 08:59:52;;;;;;;66.90;40.70;;;;;;;;;;4822927;29;87293;-80
2022/02/07 09:02:38;;;;;;;73.20;40.78;;;;;;;;;;4810831;29;86891;-79
2022/02/07 09:07:36;;;;;;;79.13;46.95;;;;;;;;;;4824860;29;90128;-81
2022/02/07 09:10:04;;;;;;;75.60;47.63;;;;;;;;;;4838704;29;87267;-79
2022/02/07 09:12:32;;;;;;;66.05;41.30;;;;;;;;;;4814200;29;87002;-79
2022/02/07 09:15:07;;;;;;;73.75;46.63;;;;;;;;;;4838641;29;89184;-78
2022/02/07 09:17:34;;;;;;;86.63;48.70;;;;;;;;;;4815148;29;89287;-79
2022/02/07 09:20:01;;;;;;;84.38;52.00;;;;;;;;;;4828310;29;86865;-78
2022/02/07 09:22:28;;;;;;;101.18;58.40;;;;;;;;;;4829271;29;86165;-80
2022/02/07 09:24:55;;;;;;;98.35;57.03;;;;;;;;;;4827878;29;88818;-80
2022/02/07 09:27:21;;;;;;;96.65;51.45;;;;;;;;;;4827221;29;88361;-79
2022/02/07 09:29:49;;;;;;;86.03;52.42;;;;;;;;;;4828363;29;87924;-80
2022/02/07 09:32:16;;;;;;;79.35;43.63;;;;;;;;;;4843011;29;86987;-81
2022/02/07 09:34:43;;;;;;;73.90;43.83;;;;;;;;;;4828807;29;89071;-80
2022/02/07 09:37:10;;;;;;;70.22;43.95;;;;;;;;;;4827484;29;89620;-80
2022/02/07 09:39:37;;;;;;;73.47;41.05;;;;;;;;;;4827082;29;86937;-79
2022/02/07 09:42:05;;;;;;;73.35;41.80;;;;;;;;;;4827903;29;87451;-80
2022/02/07 09:44:43;;;;;;;72.18;42.65;;;;;;;;;;4827572;29;89318;-80
2022/02/07 09:47:10;;;;;;;81.50;48.03;;;;;;;;;;4827800;29;87624;-81
2022/02/07 09:49:37;;;;;;;98.20;56.03;;;;;;;;;;4827517;29;87651;-81
2022/02/07 09:52:09;;;;;;;93.78;51.72;;;;;;;;;;4827680;29;86941;-81
2022/02/07 09:54:37;;;;;;;95.78;57.92;;;;;;;;;;4841709;29;89948;-80
2022/02/07 09:57:04;;;;;;;112.88;56.13;;;;;;;;;;4827477;29;90265;-81
2022/02/07 09:59:32;;;;;;;106.15;61.53;;;;;;;;;;4826259;29;86990;-80
2022/02/07 10:02:03;;;;;;;98.97;57.55;;;;;;;;;;4827656;29;86931;-81
2022/02/07 10:04:39;;;;;;;91.72;53.65;;;;;;;;;;4827268;29;88557;-80
2022/02/07 10:07:17;;;;;;;91.13;51.25;;;;;;;;;;4827298;29;90089;-81
2022/02/07 10:10:32;;;;;;;87.22;49.33;;;;;;;;;;4827038;29;88698;-80
2022/02/07 10:12:44;;;;;;;78.80;46.85;;;;;;;;;;4820240;29;86242;-81
2022/02/07 10:15:39;;;;;;;80.40;48.03;;;;;;;;;;4829656;29;89308;-80
2022/02/07 10:18:11;;;;;;;82.43;42.17;;;;;;;;;;4830229;29;89443;-80
2022/02/07 10:40:08;;;;;;;55.55;32.92;;;;;;;;;;4831261;29;89774;-81
2022/02/07 10:43:09;;;;;;;48.70;32.40;;;;;;;;;;4830340;29;86902;-81
2022/02/07 10:46:00;;;;;;;42.42;28.13;;;;;;;;;;4830584;29;86952;-80
2022/02/07 10:48:54;;;;;;;52.22;32.88;;;;;;;;;;4830573;29;89145;-80
2022/02/07 10:51:24;;;;;;;51.78;31.45;;;;;;;;;;4831175;29;88462;-80
2022/02/07 10:53:52;;;;;;;48.10;30.48;;;;;;;;;;4830550;29;86862;-80
2022/02/07 10:56:30;;;;;;;43.33;30.50;;;;;;;;;;4831556;29;87006;-80
2022/02/07 10:58:58;;;;;;;60.70;46.08;;;;;;;;;;4829967;29;87863;-81
2022/02/07 11:01:39;;;;;;;42.83;28.90;;;;;;;;;;4829393;29;89053;-81
2022/02/07 11:04:12;;;;;;;39.65;27.77;;;;;;;;;;4830076;29;86963;-81
2022/02/07 11:06:43;;;;;;;38.45;27.50;;;;;;;;;;4831343;29;86158;-81
2022/02/07 11:09:18;;;;;;;42.60;25.00;;;;;;;;;;4829391;29;90111;-81
2022/02/07 11:12:06;;;;;;;33.00;21.80;;;;;;;;;;4829672;29;89619;-80
2022/02/07 11:20:22;;;;;;;26.60;20.42;;;;;;;;;;4829818;29;89683;-81
2022/02/07 11:25:51;;;;;;;28.48;20.08;;;;;;;;;;4828962;29;86833;-81
2022/02/07 11:28:24;;;;;;;31.25;21.48;;;;;;;;;;4830477;29;86937;-81
2022/02/07 11:30:57;;;;;;;29.77;20.63;;;;;;;;;;4829270;29;89920;-82
2022/02/07 11:33:52;;;;;;;24.80;18.33;;;;;;;;;;4829092;29;88768;-81
2022/02/07 11:36:36;;;;;;;26.73;18.42;;;;;;;;;;4830285;29;87051;-81
2022/02/07 11:39:10;;;;;;;24.20;18.48;;;;;;;;;;4828869;29;87610;-81
2022/02/07 11:42:02;;;;;;;24.63;18.33;;;;;;;;;;4828584;29;90212;-81
2022/02/07 11:44:36;;;;;;;25.27;18.23;;;;;;;;;;4828924;29;90311;-82
2022/02/07 11:47:32;;;;;;;21.80;15.70;;;;;;;;;;4830591;29;86846;-81
2022/02/07 11:50:03;;;;;;;25.33;18.30;;;;;;;;;;4828594;29;87134;-82
2022/02/07 11:52:41;;;;;;;21.83;16.75;;;;;;;;;;4829634;29;89412;-82
2022/02/07 11:55:11;;;;;;;26.58;17.83;;;;;;;;;;4828629;29;89514;-82
2022/02/07 11:57:41;;;;;;;22.83;16.88;;;;;;;;;;4829535;29;86925;-81
2022/02/07 12:00:22;;;;;;;24.42;17.23;;;;;;;;;;4844245;29;86243;-81
2022/02/07 12:02:51;;;;;;;26.33;17.42;;;;;;;;;;4813630;29;91606;-82
2022/02/07 12:05:23;;;;;;;24.23;15.55;;;;;;;;;;4828619;29;88798;-82
2022/02/07 12:08:15;;;;;;;19.17;14.52;;;;;;;;;;4843798;29;87899;-82
2022/02/07 12:11:06;;;;;;;21.50;14.38;;;;;;;;;;4806697;29;86915;-82
2022/02/07 12:13:35;;;;;;;13.30;10.70;;;;;;;;;;4832296;29;87250;-82
2022/02/07 12:16:26;;;;;;;17.67;12.90;;;;;;;;;;4832026;29;88825;-82
2022/02/07 12:19:14;;;;;;;20.30;13.13;;;;;;;;;;4833663;29;86961;-81
2022/02/07 12:21:53;;;;;;;17.05;12.48;;;;;;;;;;4831430;29;87033;-82
2022/02/07 12:24:20;;;;;;;19.67;11.15;;;;;;;;;;4846943;29;89056;-82
2022/02/07 12:26:49;;;;;;;14.85;11.10;;;;;;;;;;4829413;29;88050;-82
2022/02/07 12:29:47;;;;;;;12.90;10.60;;;;;;;;;;4828816;29;87334;-82
2022/02/07 12:32:13;;;;;;;20.48;10.40;;;;;;;;;;4830067;29;86994;-82
2022/02/07 12:34:40;;;;;;;17.98;12.02;;;;;;;;;;4843160;29;88841;-82
2022/02/07 12:37:07;;;;;;;16.77;11.27;;;;;;;;;;4828036;29;90264;-82
2022/02/07 12:39:40;;;;;;;20.60;10.63;;;;;;;;;;4828012;29;87236;-82
2022/02/07 12:42:09;;;;;;;18.90;11.85;;;;;;;;;;4828817;29;86898;-82
2022/02/07 12:44:37;;;;;;;20.08;11.90;;;;;;;;;;4828953;29;90986;-82
2022/02/07 12:47:05;;;;;;;15.10;10.20;;;;;;;;;;4828323;29;89351;-82
2022/02/07 12:49:38;;;;;;;20.45;12.18;;;;;;;;;;4827949;29;86997;-82
2022/02/07 12:52:05;;;;;;;16.57;11.93;;;;;;;;;;4828980;29;86317;-82
2022/02/07 12:54:38;;;;;;;19.73;11.77;;;;;;;;;;4812559;29;89959;-82
2022/02/07 12:57:05;;;;;;;20.85;12.50;;;;;;;;;;4829299;29;89712;-82
2022/02/07 12:59:32;;;;;;;16.95;11.05;;;;;;;;;;4827649;29;88355;-82
2022/02/07 13:01:59;;;;;;;21.23;12.10;;;;;;;;;;4828101;29;86980;-82
2022/02/07 13:04:27;;;;;;;17.58;11.25;;;;;;;;;;4827865;29;88337;-82
2022/02/07 13:07:01;;;;;;;19.08;10.10;;;;;;;;;;4827750;29;87005;-82
2022/02/07 13:09:39;;;;;;;13.30;9.60;;;;;;;;;;4842478;29;87360;-82
2022/02/07 13:14:49;;;;;;;15.48;8.40;;;;;;;;;;4827938;29;88191;-82
2022/02/07 13:17:20;;;;;;;13.85;8.13;;;;;;;;;;4826355;29;89242;-81
2022/02/07 13:19:49;;;;;;;9.48;7.57;;;;;;;;;;4820562;29;87035;-80
2022/02/07 13:22:17;;;;;;;15.45;9.23;;;;;;;;;;4816460;29;87083;-76
2022/02/07 13:24:46;;;;;;;12.75;7.85;;;;;;;;;;4845764;29;89921;-77
2022/02/07 13:27:15;;;;;;;14.82;9.02;;;;;;;;;;4842432;29;90231;-81
2022/02/07 13:29:47;;;;;;;12.50;8.52;;;;;;;;;;4838239;29;86887;-77
2022/02/07 13:32:21;;;;;;;12.40;8.00;;;;;;;;;;4831105;29;87042;-78
2022/02/07 13:34:49;;;;;;;13.93;8.38;;;;;;;;;;4847180;29;86907;-78
2022/02/07 13:37:29;;;;;;;16.73;9.77;;;;;;;;;;4847718;29;87534;-78
2022/02/07 13:40:14;;;;;;;9.82;7.43;;;;;;;;;;4846675;29;86947;-78
2022/02/07 13:42:43;;;;;;;11.02;8.63;;;;;;;;;;4847307;29;86265;-78
2022/02/07 13:45:12;;;;;;;10.60;7.15;;;;;;;;;;4846234;29;88346;-77
2022/02/07 13:47:45;;;;;;;13.20;7.93;;;;;;;;;;4846818;29;88072;-77
2022/02/07 13:50:13;;;;;;;10.43;6.45;;;;;;;;;;4845367;29;87877;-78
2022/02/07 13:52:43;;;;;;;8.32;6.28;;;;;;;;;;4847060;29;86972;-78
2022/02/07 13:55:28;;;;;;;9.00;5.57;;;;;;;;;;4845908;29;89695;-78
2022/02/07 13:57:57;;;;;;;8.65;5.60;;;;;;;;;;4846522;29;89773;-78
2022/02/07 14:00:44;;;;;;;11.00;7.10;;;;;;;;;;4847416;29;86807;-78
2022/02/07 14:03:19;;;;;;;9.63;6.63;;;;;;;;;;4844757;29;87026;-78
2022/02/07 14:05:54;;;;;;;11.23;7.50;;;;;;;;;;4847611;29;91015;-78
2022/02/07 14:08:35;;;;;;;13.68;8.65;;;;;;;;;;4846789;29;88896;-78
2022/02/07 14:11:05;;;;;;;9.00;6.70;;;;;;;;;;4846973;29;87028;-78
2022/02/07 14:13:32;;;;;;;10.20;7.38;;;;;;;;;;4846848;29;86856;-78
2022/02/07 14:16:00;;;;;;;8.98;6.85;;;;;;;;;;4846112;29;93499;-78
2022/02/07 14:18:28;;;;;;;10.32;6.97;;;;;;;;;;4845943;29;89806;-78
2022/02/07 14:20:55;;;;;;;10.52;8.25;;;;;;;;;;4846634;29;86786;-78
2022/02/07 14:23:23;;;;;;;12.80;8.45;;;;;;;;;;4846199;29;86849;-77
2022/02/07 14:25:58;;;;;;;15.55;9.60;;;;;;;;;;4846203;29;89515;-78
2022/02/07 14:28:26;;;;;;;16.60;11.20;;;;;;;;;;4845889;29;88906;-78
2022/02/07 14:30:54;;;;;;;15.30;10.93;;;;;;;;;;4846859;29;86915;-78
2022/02/07 14:33:21;;;;;;;18.05;11.80;;;;;;;;;;4845399;29;86790;-78
2022/02/07 14:35:48;;;;;;;16.10;11.48;;;;;;;;;;4846736;29;89400;-78
2022/02/07 14:38:16;;;;;;;14.43;10.27;;;;;;;;;;4830176;29;88537;-78
2022/02/07 14:40:44;;;;;;;19.70;11.55;;;;;;;;;;4844863;29;87953;-78
2022/02/07 14:43:20;;;;;;;25.50;15.38;;;;;;;;;;4845868;29;86851;-78
2022/02/07 14:46:06;;;;;;;18.98;12.23;;;;;;;;;;4845127;29;90054;-78
2022/02/07 14:48:36;;;;;;;19.83;12.60;;;;;;;;;;4845848;29;88839;-80
2022/02/07 14:51:06;;;;;;;17.60;13.45;;;;;;;;;;4845580;29;87113;-75
2022/02/07 14:53:34;;;;;;;19.40;13.77;;;;;;;;;;4845763;29;87364;-78
2022/02/07 14:56:03;;;;;;;25.08;14.85;;;;;;;;;;4844909;29;89238;-79
2022/02/07 14:58:31;;;;;;;19.65;13.00;;;;;;;;;;4845542;29;89045;-78
2022/02/07 15:00:58;;;;;;;18.10;12.70;;;;;;;;;;4846347;29;86976;-78
2022/02/07 15:03:25;;;;;;;20.30;12.30;;;;;;;;;;4848828;29;87071;-78
2022/02/07 15:05:57;;;;;;;21.70;14.15;;;;;;;;;;4847675;29;91433;-79
2022/02/07 15:08:28;;;;;;;18.15;12.90;;;;;;;;;;4832377;29;89710;-77
2022/02/07 15:10:56;;;;;;;22.95;15.63;;;;;;;;;;4848775;29;86925;-78
2022/02/07 15:13:24;;;;;;;18.25;13.57;;;;;;;;;;4848425;29;86874;-77
2022/02/07 15:15:53;;;;;;;18.35;14.25;;;;;;;;;;4848166;29;89150;-77
2022/02/07 15:18:23;;;;;;;24.05;15.05;;;;;;;;;;4847489;29;88139;-77
2022/02/07 15:20:50;;;;;;;22.75;14.38;;;;;;;;;;4848609;29;86936;-77
2022/02/07 15:23:17;;;;;;;28.95;13.98;;;;;;;;;;4848379;29;86336;-78
2022/02/07 15:25:46;;;;;;;27.80;14.73;;;;;;;;;;4848087;29;89390;-77
2022/02/07 15:28:13;;;;;;;20.30;14.98;;;;;;;;;;4847593;29;86991;-78
2022/02/07 15:30:46;;;;;;;23.00;16.77;;;;;;;;;;4848064;29;88182;-77
2022/02/07 15:33:15;;;;;;;19.83;14.05;;;;;;;;;;4848080;29;86889;-77
2022/02/07 15:35:52;;;;;;;32.33;14.95;;;;;;;;;;4847687;29;89356;-77
2022/02/07 15:38:24;;;;;;;27.27;15.30;;;;;;;;;;4847935;29;89481;-77
2022/02/07 15:40:53;;;;;;;23.38;13.32;;;;;;;;;;4847818;29;86928;-77
2022/02/07 15:43:20;;;;;;;30.85;13.45;;;;;;;;;;4848306;29;87059;-77
2022/02/07 15:45:47;;;;;;;32.08;17.50;;;;;;;;;;4847180;29;89003;-77
2022/02/07 15:48:15;;;;;;;24.40;15.52;;;;;;;;;;4832623;29;87503;-77
2022/02/07 15:50:42;;;;;;;19.48;13.40;;;;;;;;;;4847482;29;87013;-77
2022/02/07 15:53:09;;;;;;;26.67;15.18;;;;;;;;;;4832699;29;86962;-77
2022/02/07 15:55:37;;;;;;;24.00;15.98;;;;;;;;;;4846811;29;91023;-77
2022/02/07 15:58:04;;;;;;;23.27;15.95;;;;;;;;;;4847533;29;87407;-77
2022/02/07 16:00:32;;;;;;;24.98;16.35;;;;;;;;;;4848377;29;87001;-77
2022/02/07 16:02:59;;;;;;;23.15;16.08;;;;;;;;;;4847925;29;86988;-77
2022/02/07 16:05:27;;;;;;;30.98;16.13;;;;;;;;;;4847455;29;89356;-77
2022/02/07 16:08:02;;;;;;;23.15;15.02;;;;;;;;;;4846990;29;87432;-77
2022/02/07 16:10:36;;;;;;;25.30;15.30;;;;;;;;;;4847114;29;87077;-76
2022/02/07 16:15:42;;;;;;;36.70;19.42;;;;;;;;;;4847462;29;87813;-76
2022/02/07 16:18:11;;;;;;;33.63;19.33;;;;;;;;;;4846620;29;89593;-76
2022/02/07 16:20:39;;;;;;;30.45;19.13;;;;;;;;;;4848150;29;87711;-76
2022/02/07 16:23:09;;;;;;;34.60;22.45;;;;;;;;;;4847029;29;86877;-76
2022/02/07 16:25:42;;;;;;;32.20;21.15;;;;;;;;;;4847082;29;88457;-76
2022/02/07 16:28:14;;;;;;;31.23;18.25;;;;;;;;;;4847276;29;89519;-76
2022/02/07 16:30:42;;;;;;;30.92;18.02;;;;;;;;;;4847281;29;86937;-76
2022/02/07 16:33:09;;;;;;;29.83;16.55;;;;;;;;;;4847425;29;87351;-75
2022/02/07 16:35:38;;;;;;;33.80;18.63;;;;;;;;;;4848064;29;89646;-75
2022/02/07 16:38:05;;;;;;;30.08;17.25;;;;;;;;;;4847415;29;87369;-76
2022/02/07 16:40:32;;;;;;;25.67;17.23;;;;;;;;;;4847862;29;86835;-77
2022/02/07 16:42:59;;;;;;;23.73;16.40;;;;;;;;;;4848490;29;86986;-77
2022/02/07 16:45:39;;;;;;;28.63;15.50;;;;;;;;;;4846029;29;90381;-77
2022/02/07 16:48:06;;;;;;;20.05;14.38;;;;;;;;;;4847036;29;91514;-78
2022/02/07 16:50:34;;;;;;;25.35;14.98;;;;;;;;;;4846169;29;86963;-75
2022/02/07 16:53:00;;;;;;;23.90;16.73;;;;;;;;;;4847107;29;86864;-77
2022/02/07 16:55:28;;;;;;;23.67;16.92;;;;;;;;;;4847752;29;89536;-77
2022/02/07 16:57:55;;;;;;;30.95;17.58;;;;;;;;;;4846642;29;89325;-78
2022/02/07 17:00:24;;;;;;;28.10;16.20;;;;;;;;;;4846250;29;86912;-77
2022/02/07 17:02:52;;;;;;;29.73;22.88;;;;;;;;;;4847268;29;86209;-77